Time;durP1;ratioP1;P1;durP2;ratioP2;P2;SDS_P1;SDS_P2;PMS_P1;PMS_P2;Temp;Humidity;BMP_temperature;BMP_pressure;BME280_temperature;BME280_humidity;BME280_pressure;Samples;Min_cycle;Max_cycle;Signal;HPM_P1;HPM_P2
2022/06/20 00:02:01;;;;;;;;;;;17.80;99.90;;;;;;4955321;29;19910;-79
2022/06/20 00:04:27;;;;;;;;;;;17.80;99.90;;;;;;4955263;29;19918;-78
2022/06/20 00:06:52;;;;;;;;;;;17.80;99.90;;;;;;4955177;28;20287;-79
2022/06/20 00:09:18;;;;;;;;;;;17.80;99.90;;;;;;4955531;29;20401;-79
2022/06/20 00:11:48;;;;;;;;;;;17.70;99.90;;;;;;4955231;28;19949;-80
2022/06/20 00:14:17;;;;;;;;;;;17.80;99.90;;;;;;4955111;28;19911;-78
2022/06/20 00:16:43;;;;;;;;;;;17.90;99.90;;;;;;4955212;28;19918;-78
2022/06/20 00:19:12;;;;;;;;;;;17.90;99.90;;;;;;4955367;28;19914;-80
2022/06/20 00:21:38;;;;;;;;;;;17.90;99.90;;;;;;4955158;28;19917;-78
2022/06/20 00:24:04;;;;;;;;;;;18.00;99.90;;;;;;4955123;28;20009;-79
2022/06/20 00:26:30;;;;;;;;;;;18.10;99.90;;;;;;4955123;29;20312;-79
2022/06/20 00:28:56;;;;;;;;;;;18.00;99.90;;;;;;4955047;29;19914;-79
2022/06/20 00:31:22;;;;;;;;;;;17.70;99.90;;;;;;4955250;29;19918;-80
2022/06/20 00:33:47;;;;;;;;;;;17.40;99.90;;;;;;4955043;29;19957;-79
2022/06/20 00:36:13;;;;;;;;;;;17.50;99.90;;;;;;4956718;28;19954;-79
2022/06/20 00:38:40;;;;;;;;;;;17.70;99.90;;;;;;4958430;29;19914;-79
2022/06/20 00:41:09;;;;;;;;;;;17.90;99.90;;;;;;4958402;29;19917;-78
2022/06/20 00:43:40;;;;;;;;;;;17.90;99.90;;;;;;4958248;28;19917;-78
2022/06/20 00:46:11;;;;;;;;;;;18.10;99.90;;;;;;4958639;29;19965;-78
2022/06/20 00:48:53;;;;;;;;;;;18.00;99.90;;;;;;4957835;29;19926;-78
2022/06/20 00:51:32;;;;;;;;;;;18.00;99.90;;;;;;4958330;29;20001;-80
2022/06/20 00:54:04;;;;;;;;;;;18.00;99.90;;;;;;4941045;29;19911;-77
2022/06/20 00:56:34;;;;;;;;;;;18.20;99.90;;;;;;4958160;29;20367;-79
2022/06/20 00:59:02;;;;;;;;;;;18.10;99.90;;;;;;4958124;29;20371;-78
2022/06/20 01:01:32;;;;;;;;;;;18.10;99.90;;;;;;4957916;29;20371;-78
2022/06/20 01:04:01;;;;;;;;;;;18.00;99.90;;;;;;4957901;29;20049;-80
2022/06/20 01:06:30;;;;;;;;;;;17.90;99.90;;;;;;4957907;29;19957;-78
2022/06/20 01:09:06;;;;;;;;;;;17.80;99.90;;;;;;4957714;29;19915;-78
2022/06/20 01:11:42;;;;;;;;;;;17.80;99.90;;;;;;4958070;29;19911;-78
2022/06/20 01:14:26;;;;;;;;;;;17.80;99.90;;;;;;4958057;29;19910;-78
2022/06/20 01:16:53;;;;;;;;;;;17.80;99.90;;;;;;4957768;28;19910;-79
2022/06/20 01:19:42;;;;;;;;;;;17.80;99.90;;;;;;4957822;28;19922;-79
2022/06/20 01:22:17;;;;;;;;;;;17.80;99.90;;;;;;4957717;29;19918;-79
2022/06/20 01:25:03;;;;;;;;;;;17.80;99.90;;;;;;4940190;29;19997;-79
2022/06/20 01:27:33;;;;;;;;;;;17.70;99.90;;;;;;4920682;29;19918;-78
2022/06/20 01:29:59;;;;;;;;;;;17.80;99.90;;;;;;4957707;29;19950;-79
2022/06/20 01:32:25;;;;;;;;;;;17.60;99.90;;;;;;4957501;29;19954;-79
2022/06/20 01:34:51;;;;;;;;;;;17.50;99.90;;;;;;4957559;29;19911;-78
2022/06/20 01:37:23;;;;;;;;;;;17.40;99.90;;;;;;4957471;28;20009;-78
2022/06/20 01:39:49;;;;;;;;;;;17.40;99.90;;;;;;4957390;29;19911;-78
2022/06/20 01:42:18;;;;;;;;;;;17.60;99.90;;;;;;4957643;28;20442;-78
2022/06/20 01:44:57;;;;;;;;;;;17.70;99.90;;;;;;4957263;29;19910;-79
2022/06/20 01:47:22;;;;;;;;;;;17.50;99.90;;;;;;4956216;28;19920;-80
2022/06/20 01:49:49;;;;;;;;;;;17.50;99.90;;;;;;4956838;29;20009;-79
2022/06/20 01:52:15;;;;;;;;;;;17.60;99.90;;;;;;4956982;28;19960;-80
2022/06/20 01:54:43;;;;;;;;;;;17.70;99.90;;;;;;4957085;28;20387;-80
2022/06/20 01:57:09;;;;;;;;;;;17.90;99.90;;;;;;4957021;28;19921;-78
2022/06/20 01:59:37;;;;;;;;;;;17.80;99.90;;;;;;4956867;29;19910;-79
2022/06/20 02:02:03;;;;;;;;;;;17.90;99.90;;;;;;4956862;29;19910;-79
2022/06/20 02:04:31;;;;;;;;;;;18.10;99.90;;;;;;4956884;28;19961;-79
2022/06/20 02:06:59;;;;;;;;;;;18.10;99.90;;;;;;4956972;29;19911;-79
2022/06/20 02:09:25;;;;;;;;;;;18.30;99.90;;;;;;4956706;29;20323;-78
2022/06/20 02:11:51;;;;;;;;;;;18.40;99.90;;;;;;4956746;29;20425;-78
2022/06/20 02:14:25;;;;;;;;;;;18.50;99.90;;;;;;4956716;29;19954;-78
2022/06/20 02:16:54;;;;;;;;;;;18.50;99.90;;;;;;4956996;29;19914;-78
2022/06/20 02:19:24;;;;;;;;;;;18.40;99.90;;;;;;4956533;28;19962;-79
2022/06/20 02:21:50;;;;;;;;;;;18.20;99.90;;;;;;4956696;29;19914;-80
2022/06/20 02:24:17;;;;;;;;;;;18.10;99.90;;;;;;4956605;28;19953;-80
2022/06/20 02:26:45;;;;;;;;;;;18.30;99.90;;;;;;4956397;29;19914;-79
2022/06/20 02:29:25;;;;;;;;;;;18.40;99.90;;;;;;4939147;29;20011;-78
2022/06/20 02:32:00;;;;;;;;;;;18.50;99.90;;;;;;4956504;29;19911;-79
2022/06/20 02:34:28;;;;;;;;;;;18.40;99.90;;;;;;4956385;29;19926;-78
2022/06/20 02:36:55;;;;;;;;;;;18.40;99.90;;;;;;4956268;29;19961;-78
2022/06/20 02:39:21;;;;;;;;;;;18.40;99.90;;;;;;4956239;29;20426;-79
2022/06/20 02:41:49;;;;;;;;;;;18.40;99.90;;;;;;4956232;29;19910;-78
2022/06/20 02:44:16;;;;;;;;;;;18.50;99.90;;;;;;4956208;29;19916;-78
2022/06/20 02:46:42;;;;;;;;;;;18.60;99.90;;;;;;4938748;29;20383;-80
2022/06/20 02:49:09;;;;;;;;;;;18.60;99.90;;;;;;4955815;28;19922;-79
2022/06/20 02:51:36;;;;;;;;;;;18.60;99.90;;;;;;4956168;29;19961;-80
2022/06/20 02:54:04;;;;;;;;;;;18.70;99.90;;;;;;4956004;29;19911;-78
2022/06/20 02:56:31;;;;;;;;;;;18.80;99.90;;;;;;4955915;29;19920;-78
2022/06/20 02:58:59;;;;;;;;;;;18.70;99.90;;;;;;4956192;28;19965;-78
2022/06/20 03:01:32;;;;;;;;;;;18.60;99.90;;;;;;4956135;29;19966;-78
2022/06/20 03:03:58;;;;;;;;;;;18.70;99.90;;;;;;4955826;28;19918;-79
2022/06/20 03:06:24;;;;;;;;;;;18.80;99.90;;;;;;4938488;29;19969;-78
2022/06/20 03:08:50;;;;;;;;;;;18.70;99.90;;;;;;4955721;29;19975;-78
2022/06/20 03:11:16;;;;;;;;;;;18.80;99.90;;;;;;4955829;28;20329;-78
2022/06/20 03:13:42;;;;;;;;;;;18.90;99.90;;;;;;4955716;29;19911;-79
2022/06/20 03:16:08;;;;;;;;;;;18.80;99.90;;;;;;4955749;29;19933;-79
2022/06/20 03:18:39;;;;;;;;;;;18.80;99.90;;;;;;4955763;29;19961;-78
2022/06/20 03:21:05;;;;;;;;;;;18.80;99.90;;;;;;4955856;29;20322;-78
2022/06/20 03:23:32;;;;;;;;;;;18.80;99.90;;;;;;4955798;29;19915;-80
2022/06/20 03:25:59;;;;;;;;;;;18.80;99.90;;;;;;4955657;29;19911;-77
2022/06/20 03:28:25;;;;;;;;;;;18.80;99.90;;;;;;4955507;29;19914;-79
2022/06/20 03:30:51;;;;;;;;;;;18.80;99.90;;;;;;4955932;29;20322;-79
2022/06/20 03:33:17;;;;;;;;;;;18.80;99.90;;;;;;4955818;28;19917;-79
2022/06/20 03:35:45;;;;;;;;;;;18.90;99.90;;;;;;4955564;29;19950;-79
2022/06/20 03:38:13;;;;;;;;;;;18.90;99.90;;;;;;4955814;29;19915;-79
2022/06/20 03:40:41;;;;;;;;;;;18.80;99.90;;;;;;4938177;29;19942;-78
2022/06/20 03:43:09;;;;;;;;;;;18.80;99.90;;;;;;4955524;29;19961;-80
2022/06/20 03:45:38;;;;;;;;;;;18.80;99.90;;;;;;4955898;29;19917;-78
2022/06/20 03:48:08;;;;;;;;;;;18.90;99.90;;;;;;4955137;28;20287;-80
2022/06/20 03:50:37;;;;;;;;;;;18.80;99.90;;;;;;4955690;29;19910;-79
2022/06/20 03:53:02;;;;;;;;;;;18.80;99.90;;;;;;4955524;28;20390;-79
2022/06/20 03:55:31;;;;;;;;;;;18.70;99.90;;;;;;4955370;28;19911;-79
2022/06/20 03:58:06;;;;;;;;;;;18.60;99.90;;;;;;4955694;28;19910;-78
2022/06/20 04:00:54;;;;;;;;;;;18.70;99.90;;;;;;4955588;29;19911;-77
2022/06/20 04:03:23;;;;;;;;;;;18.60;99.90;;;;;;4936553;29;19915;-80
2022/06/20 04:06:03;;;;;;;;;;;18.70;99.90;;;;;;4955499;29;20322;-78
2022/06/20 04:11:30;;;;;;;;;;;18.70;99.90;;;;;;4957111;28;19917;-80
2022/06/20 04:14:02;;;;;;;;;;;18.80;99.90;;;;;;4958951;29;19911;-79
2022/06/20 04:16:34;;;;;;;;;;;18.90;99.90;;;;;;4959027;29;19910;-79
2022/06/20 04:19:04;;;;;;;;;;;18.80;99.90;;;;;;4958818;29;19914;-79
2022/06/20 04:21:36;;;;;;;;;;;18.80;99.90;;;;;;4958730;29;20021;-78
2022/06/20 04:24:01;;;;;;;;;;;18.60;99.90;;;;;;4958745;29;19993;-79
2022/06/20 04:26:40;;;;;;;;;;;18.60;99.90;;;;;;4958660;29;19947;-80
2022/06/20 04:29:24;;;;;;;;;;;18.70;99.90;;;;;;4958920;29;19921;-79
2022/06/20 04:31:58;;;;;;;;;;;18.90;99.90;;;;;;4958737;29;19915;-78
2022/06/20 04:34:36;;;;;;;;;;;18.90;99.90;;;;;;4958612;29;19914;-80
2022/06/20 04:37:10;;;;;;;;;;;18.90;99.90;;;;;;4941257;29;19910;-79
2022/06/20 04:39:42;;;;;;;;;;;18.90;99.90;;;;;;4958736;29;19911;-80
2022/06/20 04:42:13;;;;;;;;;;;19.00;99.90;;;;;;4958379;29;19911;-78
2022/06/20 04:44:44;;;;;;;;;;;19.00;99.90;;;;;;4958316;29;19917;-79
2022/06/20 04:47:19;;;;;;;;;;;19.00;99.90;;;;;;4958186;29;19914;-78
2022/06/20 04:49:45;;;;;;;;;;;19.20;99.90;;;;;;4958161;28;19923;-79
2022/06/20 04:52:13;;;;;;;;;;;19.10;99.90;;;;;;4958326;29;19917;-77
2022/06/20 04:54:39;;;;;;;;;;;19.10;99.90;;;;;;4958592;28;19910;-79
2022/06/20 04:57:05;;;;;;;;;;;19.20;99.90;;;;;;4958451;29;19917;-79
2022/06/20 04:59:31;;;;;;;;;;;19.30;99.90;;;;;;4958235;28;19933;-79
2022/06/20 05:01:58;;;;;;;;;;;19.30;99.90;;;;;;4958060;29;20436;-78
2022/06/20 05:04:26;;;;;;;;;;;19.50;99.90;;;;;;4958101;28;20334;-78
2022/06/20 05:06:53;;;;;;;;;;;19.50;99.90;;;;;;4957996;29;19923;-79
2022/06/20 05:09:22;;;;;;;;;;;19.50;99.90;;;;;;4958225;28;20271;-79
2022/06/20 05:11:51;;;;;;;;;;;19.70;99.90;;;;;;4940642;29;19911;-79
2022/06/20 05:14:23;;;;;;;;;;;19.80;99.90;;;;;;4957724;29;20005;-78
2022/06/20 05:16:50;;;;;;;;;;;19.80;99.90;;;;;;4958032;28;19918;-78
2022/06/20 05:19:28;;;;;;;;;;;19.80;99.90;;;;;;4957920;29;19911;-78
2022/06/20 05:21:56;;;;;;;;;;;19.70;99.90;;;;;;4957721;28;19915;-79
2022/06/20 05:24:27;;;;;;;;;;;19.70;99.90;;;;;;4957629;29;19993;-79
2022/06/20 05:26:54;;;;;;;;;;;19.80;99.90;;;;;;4940346;29;19911;-80
2022/06/20 05:29:20;;;;;;;;;;;19.60;99.90;;;;;;4957398;29;19918;-79
2022/06/20 05:31:49;;;;;;;;;;;19.60;99.90;;;;;;4957545;29;19918;-78
2022/06/20 05:34:15;;;;;;;;;;;19.60;99.90;;;;;;4957557;29;19966;-78
2022/06/20 05:36:49;;;;;;;;;;;19.80;99.90;;;;;;4957400;29;19949;-78
2022/06/20 05:39:24;;;;;;;;;;;19.70;99.90;;;;;;4957477;29;19910;-78
2022/06/20 05:41:50;;;;;;;;;;;19.70;99.90;;;;;;4957329;29;19966;-80
2022/06/20 05:44:16;;;;;;;;;;;19.60;99.90;;;;;;4957237;29;19910;-79
2022/06/20 05:46:43;;;;;;;;;;;19.50;99.90;;;;;;4957308;29;20345;-80
2022/06/20 05:49:16;;;;;;;;;;;19.60;99.90;;;;;;4939085;29;20005;-78
2022/06/20 05:51:43;;;;;;;;;;;19.80;99.90;;;;;;4956247;29;19910;-78
2022/06/20 05:54:17;;;;;;;;;;;19.90;99.90;;;;;;4956104;29;19918;-79
2022/06/20 05:57:03;;;;;;;;;;;20.00;99.90;;;;;;4955928;29;20016;-79
2022/06/20 05:59:34;;;;;;;;;;;20.10;99.90;;;;;;4948766;29;20363;-78
2022/06/20 06:02:03;;;;;;;;;;;20.20;99.90;;;;;;4956207;29;19921;-80
2022/06/20 06:04:36;;;;;;;;;;;20.20;99.90;;;;;;4956003;29;19982;-79
2022/06/20 06:07:05;;;;;;;;;;;20.20;99.90;;;;;;4955933;29;19910;-79
2022/06/20 06:09:38;;;;;;;;;;;20.30;99.90;;;;;;4955912;28;19915;-78
2022/06/20 06:12:08;;;;;;;;;;;20.30;99.90;;;;;;4956008;29;19933;-79
2022/06/20 06:14:40;;;;;;;;;;;20.40;99.90;;;;;;4956007;29;19910;-79
2022/06/20 06:17:10;;;;;;;;;;;20.40;99.90;;;;;;4955704;28;19910;-79
2022/06/20 06:19:56;;;;;;;;;;;20.40;99.90;;;;;;4955945;29;20315;-78
2022/06/20 06:22:24;;;;;;;;;;;20.40;99.90;;;;;;4955172;29;19941;-78
2022/06/20 06:24:52;;;;;;;;;;;20.50;99.90;;;;;;4955667;29;19997;-79
2022/06/20 06:27:29;;;;;;;;;;;20.60;99.90;;;;;;4955725;29;20410;-78
2022/06/20 06:30:00;;;;;;;;;;;20.60;99.90;;;;;;4955755;29;19911;-78
2022/06/20 06:33:01;;;;;;;;;;;20.70;99.90;;;;;;4955718;29;19917;-78
2022/06/20 06:35:27;;;;;;;;;;;20.80;99.90;;;;;;4915320;29;19938;-80
2022/06/20 06:37:52;;;;;;;;;;;20.60;99.90;;;;;;4947045;29;20363;-78
2022/06/20 06:40:30;;;;;;;;;;;20.40;99.90;;;;;;4955496;28;19993;-79
2022/06/20 06:42:57;;;;;;;;;;;20.40;99.90;;;;;;4955893;29;19978;-78
2022/06/20 06:45:23;;;;;;;;;;;20.30;99.90;;;;;;4955673;29;19945;-78
2022/06/20 06:47:56;;;;;;;;;;;20.20;99.90;;;;;;4884860;28;2051133;-79
2022/06/20 06:50:21;;;;;;;;;;;20.30;99.90;;;;;;4956134;29;19910;-79
2022/06/20 06:52:58;;;;;;;;;;;20.60;99.90;;;;;;4956061;28;19910;-79
2022/06/20 06:55:33;;;;;;;;;;;20.70;99.90;;;;;;4956201;29;19910;-78
2022/06/20 06:58:17;;;;;;;;;;;20.60;99.90;;;;;;4955950;29;19911;-80
2022/06/20 07:00:45;;;;;;;;;;;20.80;99.90;;;;;;4955981;29;19910;-78
2022/06/20 07:03:19;;;;;;;;;;;21.10;99.90;;;;;;4956262;29;19916;-78
2022/06/20 07:05:48;;;;;;;;;;;21.10;99.90;;;;;;4955759;29;20370;-79
2022/06/20 07:08:20;;;;;;;;;;;21.30;99.90;;;;;;4955719;29;20447;-79
2022/06/20 07:10:45;;;;;;;;;;;21.70;99.90;;;;;;4955737;29;19917;-80
2022/06/20 07:13:46;;;;;;;;;;;21.80;99.90;;;;;;4955996;28;19910;-79
2022/06/20 07:16:20;;;;;;;;;;;22.60;99.90;;;;;;4915681;29;19919;-81
2022/06/20 07:18:51;;;;;;;;;;;22.70;99.90;;;;;;4949662;29;19910;-79
2022/06/20 07:21:18;;;;;;;;;;;22.60;99.90;;;;;;4955715;29;19918;-78
2022/06/20 07:23:45;;;;;;;;;;;23.00;99.90;;;;;;4955713;28;20267;-79
2022/06/20 07:26:13;;;;;;;;;;;23.50;99.90;;;;;;4955599;28;19941;-80
2022/06/20 07:28:57;;;;;;;;;;;23.20;99.90;;;;;;4955584;29;20082;-80
2022/06/20 07:31:38;;;;;;;;;;;22.90;99.90;;;;;;4955639;29;19910;-79
2022/06/20 07:34:25;;;;;;;;;;;22.90;99.90;;;;;;4955613;29;19945;-79
2022/06/20 07:36:53;;;;;;;;;;;23.00;99.90;;;;;;4955946;29;19911;-80
2022/06/20 07:39:21;;;;;;;;;;;22.60;99.90;;;;;;4955487;28;20391;-79
2022/06/20 07:41:51;;;;;;;;;;;22.60;99.90;;;;;;4955652;29;19911;-79
2022/06/20 07:44:22;;;;;;;;;;;22.80;99.90;;;;;;4955436;28;19918;-79
2022/06/20 07:46:53;;;;;;;;;;;23.10;99.90;;;;;;4958345;29;20004;-80
2022/06/20 07:49:45;;;;;;;;;;;23.30;99.90;;;;;;4959188;29;19930;-80
2022/06/20 07:52:13;;;;;;;;;;;24.00;99.90;;;;;;4957024;29;19962;-80
2022/06/20 07:54:46;;;;;;;;;;;24.30;99.90;;;;;;4959642;29;20434;-81
2022/06/20 07:57:13;;;;;;;;;;;24.40;99.90;;;;;;4959125;28;19917;-81
2022/06/20 07:59:39;;;;;;;;;;;24.50;99.90;;;;;;4959256;28;19910;-81
2022/06/20 08:02:07;;;;;;;;;;;24.50;99.90;;;;;;4959156;29;19910;-80
2022/06/20 08:04:35;;;;;;;;;;;24.60;99.90;;;;;;4959132;29;19910;-80
2022/06/20 08:07:09;;;;;;;;;;;24.60;99.90;;;;;;4959149;29;20391;-82
2022/06/20 08:09:41;;;;;;;;;;;24.70;99.90;;;;;;4959012;28;19914;-80
2022/06/20 08:12:18;;;;;;;;;;;24.90;99.90;;;;;;4958887;29;19966;-82
2022/06/20 08:14:47;;;;;;;;;;;25.00;99.90;;;;;;4958953;29;20036;-81
2022/06/20 08:17:12;;;;;;;;;;;24.70;99.90;;;;;;4958952;29;19910;-82
2022/06/20 08:19:40;;;;;;;;;;;24.00;99.90;;;;;;4958894;29;19933;-82
2022/06/20 08:22:11;;;;;;;;;;;23.90;99.90;;;;;;4958688;29;19954;-79
2022/06/20 08:24:44;;;;;;;;;;;23.50;99.90;;;;;;4958763;29;19968;-77
2022/06/20 08:27:12;;;;;;;;;;;23.20;99.90;;;;;;4958722;29;20006;-79
2022/06/20 08:29:39;;;;;;;;;;;23.10;99.90;;;;;;4958566;29;19915;-78
2022/06/20 08:32:10;;;;;;;;;;;23.10;99.90;;;;;;4958681;29;20349;-78
2022/06/20 08:34:50;;;;;;;;;;;23.10;99.90;;;;;;4959048;29;19965;-78
2022/06/20 08:37:23;;;;;;;;;;;23.00;99.90;;;;;;4958850;29;19910;-79
2022/06/20 08:39:52;;;;;;;;;;;22.90;99.90;;;;;;4958642;29;19910;-78
2022/06/20 08:42:20;;;;;;;;;;;22.60;99.90;;;;;;4958419;28;19911;-78
2022/06/20 08:45:04;;;;;;;;;;;22.70;99.90;;;;;;4958371;29;20264;-78
2022/06/20 08:47:36;;;;;;;;;;;22.70;99.90;;;;;;4958244;29;20017;-79
2022/06/20 08:50:05;;;;;;;;;;;22.70;99.90;;;;;;4940615;29;19922;-79
2022/06/20 08:52:49;;;;;;;;;;;22.70;99.90;;;;;;4958270;28;19914;-79
2022/06/20 08:55:29;;;;;;;;;;;22.80;99.90;;;;;;4958241;29;19934;-78
2022/06/20 08:58:07;;;;;;;;;;;22.80;99.90;;;;;;4957734;28;20375;-78
2022/06/20 09:00:41;;;;;;;;;;;22.90;99.90;;;;;;4958366;29;19997;-79
2022/06/20 09:03:07;;;;;;;;;;;23.00;99.90;;;;;;4958326;29;19911;-78
2022/06/20 09:05:38;;;;;;;;;;;22.80;99.90;;;;;;4958018;29;19981;-77
2022/06/20 09:08:04;;;;;;;;;;;22.70;99.90;;;;;;4957951;29;19969;-80
2022/06/20 09:10:48;;;;;;;;;;;22.60;99.90;;;;;;4957950;29;20287;-78
2022/06/20 09:13:16;;;;;;;;;;;22.70;99.90;;;;;;4957879;28;19910;-79
2022/06/20 09:15:54;;;;;;;;;;;22.60;99.90;;;;;;4957868;29;19980;-77
2022/06/20 09:18:27;;;;;;;;;;;22.70;99.90;;;;;;4957941;28;20438;-80
2022/06/20 09:20:58;;;;;;;;;;;22.50;99.90;;;;;;4957854;29;19910;-78
2022/06/20 09:23:33;;;;;;;;;;;22.50;99.90;;;;;;4957779;29;20426;-77
2022/06/20 09:26:04;;;;;;;;;;;22.60;99.90;;;;;;4957676;28;19918;-79
2022/06/20 09:28:37;;;;;;;;;;;23.00;99.90;;;;;;4957475;28;19925;-78
2022/06/20 09:31:21;;;;;;;;;;;23.10;99.90;;;;;;4957740;29;19918;-79
2022/06/20 09:34:05;;;;;;;;;;;23.20;99.90;;;;;;4957517;29;19911;-79
2022/06/20 09:36:33;;;;;;;;;;;23.30;99.90;;;;;;4957497;28;19934;-77
2022/06/20 09:39:11;;;;;;;;;;;23.70;99.90;;;;;;4957485;29;19942;-78
2022/06/20 09:41:52;;;;;;;;;;;23.60;99.90;;;;;;4957571;29;19910;-79
2022/06/20 09:44:20;;;;;;;;;;;23.80;99.90;;;;;;4957660;29;20394;-78
2022/06/20 09:47:04;;;;;;;;;;;23.80;99.90;;;;;;4957304;28;19917;-79
2022/06/20 09:49:49;;;;;;;;;;;24.20;99.90;;;;;;4956810;28;19934;-79
2022/06/20 09:52:27;;;;;;;;;;;24.00;99.90;;;;;;4939939;29;19914;-79
2022/06/20 09:55:06;;;;;;;;;;;24.40;99.00;;;;;;4939857;29;20291;-78
2022/06/20 09:57:41;;;;;;;;;;;24.60;98.40;;;;;;4957069;29;19918;-79
2022/06/20 10:00:15;;;;;;;;;;;24.70;97.20;;;;;;4957300;29;19911;-79
2022/06/20 10:02:46;;;;;;;;;;;24.80;97.80;;;;;;4957004;29;20375;-80
2022/06/20 10:05:21;;;;;;;;;;;25.20;97.00;;;;;;4957151;29;20379;-77
2022/06/20 10:07:51;;;;;;;;;;;25.80;94.60;;;;;;4956590;28;19915;-78
2022/06/20 10:10:28;;;;;;;;;;;27.20;93.20;;;;;;4956700;28;20414;-78
2022/06/20 10:13:02;;;;;;;;;;;28.20;90.80;;;;;;4956783;29;19946;-79
2022/06/20 10:15:43;;;;;;;;;;;29.90;85.80;;;;;;4956948;29;20347;-80
2022/06/20 10:18:18;;;;;;;;;;;31.10;80.70;;;;;;4956855;29;19918;-79
2022/06/20 10:20:46;;;;;;;;;;;32.60;75.50;;;;;;4956719;29;20367;-79
2022/06/20 10:23:12;;;;;;;;;;;32.90;71.90;;;;;;4956592;28;19911;-79
2022/06/20 10:25:45;;;;;;;;;;;33.50;69.40;;;;;;4956720;29;19969;-79
2022/06/20 10:28:16;;;;;;;;;;;33.80;66.60;;;;;;4956695;29;19921;-80
2022/06/20 10:30:41;;;;;;;;;;;33.30;67.00;;;;;;4956644;29;19910;-78
2022/06/20 10:33:25;;;;;;;;;;;33.40;66.00;;;;;;4956470;29;19910;-79
2022/06/20 10:35:58;;;;;;;;;;;33.40;66.50;;;;;;4956596;29;19915;-80
2022/06/20 10:38:26;;;;;;;;;;;33.10;64.90;;;;;;4956409;29;19958;-77
2022/06/20 10:40:55;;;;;;;;;;;34.10;64.90;;;;;;4956294;29;19933;-78
2022/06/20 10:43:23;;;;;;;;;;;34.00;63.80;;;;;;4956273;29;19914;-80
2022/06/20 10:46:07;;;;;;;;;;;34.30;63.30;;;;;;4956251;28;19941;-80
2022/06/20 10:48:51;;;;;;;;;;;34.80;63.00;;;;;;4955865;28;19930;-79
2022/06/20 10:51:20;;;;;;;;;;;35.70;60.50;;;;;;4938884;29;19910;-79
2022/06/20 10:53:54;;;;;;;;;;;35.70;59.60;;;;;;4956315;29;20057;-80
2022/06/20 10:56:29;;;;;;;;;;;36.00;59.10;;;;;;4956207;29;19921;-80
2022/06/20 10:59:10;;;;;;;;;;;36.40;58.30;;;;;;4956007;29;19997;-79
2022/06/20 11:01:41;;;;;;;;;;;36.80;58.10;;;;;;4955859;29;20367;-80
2022/06/20 11:04:06;;;;;;;;;;;37.20;57.40;;;;;;4955931;28;20291;-78
2022/06/20 11:06:43;;;;;;;;;;;36.20;57.10;;;;;;4955924;28;19911;-79
2022/06/20 11:09:11;;;;;;;;;;;36.00;57.20;;;;;;4955821;29;19914;-79
2022/06/20 11:11:49;;;;;;;;;;;36.30;57.40;;;;;;4956063;29;19910;-80
2022/06/20 11:14:36;;;;;;;;;;;36.00;56.30;;;;;;4938397;29;19910;-80
2022/06/20 11:17:09;;;;;;;;;;;35.50;57.00;;;;;;4955810;29;19918;-80
2022/06/20 11:19:57;;;;;;;;;;;34.10;58.60;;;;;;4956052;28;19910;-79
2022/06/20 11:22:26;;;;;;;;;;;33.60;59.80;;;;;;4955631;29;19911;-77
2022/06/20 11:25:12;;;;;;;;;;;32.80;60.90;;;;;;4955653;29;19961;-81
2022/06/20 11:27:52;;;;;;;;;;;32.50;62.00;;;;;;4955755;29;20395;-80
2022/06/20 11:30:18;;;;;;;;;;;33.60;60.90;;;;;;4955892;29;19963;-79
2022/06/20 11:32:56;;;;;;;;;;;34.40;59.60;;;;;;4955584;29;19910;-78
2022/06/20 11:35:27;;;;;;;;;;;35.20;58.30;;;;;;4955591;29;19977;-78
2022/06/20 11:37:52;;;;;;;;;;;36.40;57.10;;;;;;4955609;29;19911;-78
2022/06/20 11:40:21;;;;;;;;;;;36.80;56.00;;;;;;4955563;29;20268;-79
2022/06/20 11:42:57;;;;;;;;;;;35.20;56.60;;;;;;4955428;28;20290;-79
2022/06/20 11:45:28;;;;;;;;;;;36.00;57.50;;;;;;4955724;29;19917;-79
2022/06/20 11:47:54;;;;;;;;;;;37.40;55.40;;;;;;4955215;29;19914;-79
2022/06/20 11:50:25;;;;;;;;;;;37.10;55.30;;;;;;4955469;29;19920;-80
2022/06/20 11:52:51;;;;;;;;;;;36.00;55.80;;;;;;4955606;29;20351;-80
2022/06/20 11:55:32;;;;;;;;;;;35.80;55.90;;;;;;4955370;29;19911;-79
2022/06/20 11:58:13;;;;;;;;;;;37.10;54.40;;;;;;4955351;29;19910;-79
2022/06/20 12:00:42;;;;;;;;;;;36.80;53.70;;;;;;4955305;29;20309;-80
2022/06/20 12:03:20;;;;;;;;;;;36.80;54.30;;;;;;4955416;29;19910;-79
2022/06/20 12:05:45;;;;;;;;;;;36.40;54.60;;;;;;4955423;29;19949;-78
2022/06/20 12:08:27;;;;;;;;;;;36.80;54.70;;;;;;4955190;29;19914;-78
2022/06/20 12:10:57;;;;;;;;;;;37.80;54.50;;;;;;4955338;29;19958;-79
2022/06/20 12:13:33;;;;;;;;;;;37.20;53.20;;;;;;4955636;28;19910;-78
2022/06/20 12:16:05;;;;;;;;;;;36.70;53.70;;;;;;4955370;29;20290;-79
2022/06/20 12:18:40;;;;;;;;;;;35.50;55.10;;;;;;4955257;28;19915;-79
2022/06/20 12:23:55;;;;;;;;;;;35.90;55.20;;;;;;4955275;29;19917;-78
2022/06/20 12:26:32;;;;;;;;;;;35.60;55.00;;;;;;4955088;28;19911;-79
2022/06/20 12:28:59;;;;;;;;;;;36.80;54.90;;;;;;4955220;29;20375;-79
2022/06/20 12:31:25;;;;;;;;;;;38.40;53.20;;;;;;4955725;28;19911;-78
2022/06/20 12:34:14;;;;;;;;;;;38.50;51.90;;;;;;4958615;29;19932;-78
2022/06/20 12:36:48;;;;;;;;;;;38.10;52.30;;;;;;4958815;29;19914;-79
2022/06/20 12:39:34;;;;;;;;;;;37.90;52.20;;;;;;4958642;29;19983;-79
2022/06/20 12:42:17;;;;;;;;;;;38.00;52.30;;;;;;4958356;29;20375;-79
2022/06/20 12:44:45;;;;;;;;;;;37.00;52.60;;;;;;4958663;29;19910;-79
2022/06/20 12:47:14;;;;;;;;;;;37.40;53.40;;;;;;4958315;29;19910;-79
2022/06/20 12:49:55;;;;;;;;;;;37.20;52.90;;;;;;4958110;28;19922;-79
2022/06/20 12:52:43;;;;;;;;;;;37.80;51.80;;;;;;4958368;29;19914;-79
2022/06/20 12:55:20;;;;;;;;;;;37.40;52.90;;;;;;4958411;29;19918;-79
2022/06/20 12:57:53;;;;;;;;;;;37.10;52.00;;;;;;4958329;29;19910;-79
2022/06/20 13:00:19;;;;;;;;;;;36.50;53.10;;;;;;4958341;29;19918;-77
2022/06/20 13:03:03;;;;;;;;;;;35.70;54.20;;;;;;4958473;29;19910;-79
2022/06/20 13:05:41;;;;;;;;;;;36.60;53.40;;;;;;4958043;29;19911;-78
2022/06/20 13:08:12;;;;;;;;;;;36.50;53.10;;;;;;4957938;29;20363;-80
2022/06/20 13:10:47;;;;;;;;;;;38.10;52.40;;;;;;4940710;29;19911;-78
2022/06/20 13:13:25;;;;;;;;;;;38.60;51.20;;;;;;4958181;28;19910;-80
2022/06/20 13:15:53;;;;;;;;;;;38.40;50.60;;;;;;4957826;28;19914;-80
2022/06/20 13:18:44;;;;;;;;;;;37.40;51.20;;;;;;4957937;29;20346;-78
2022/06/20 13:21:22;;;;;;;;;;;37.60;51.20;;;;;;4957851;29;19962;-80
2022/06/20 13:24:03;;;;;;;;;;;37.20;51.30;;;;;;4957601;29;19911;-78
2022/06/20 13:26:44;;;;;;;;;;;37.70;52.00;;;;;;4957866;29;20387;-80
2022/06/20 13:29:19;;;;;;;;;;;38.30;51.30;;;;;;4957528;28;19914;-80
2022/06/20 13:31:49;;;;;;;;;;;36.80;51.30;;;;;;4957500;29;19910;-80
2022/06/20 13:34:47;;;;;;;;;;;36.60;53.00;;;;;;4957944;29;19918;-79
2022/06/20 13:37:17;;;;;;;;;;;37.90;50.80;;;;;;4935301;29;19910;-79
2022/06/20 13:39:44;;;;;;;;;;;37.60;51.10;;;;;;4957443;28;19960;-79
2022/06/20 13:42:16;;;;;;;;;;;38.20;51.80;;;;;;4957291;29;19911;-79
2022/06/20 13:44:59;;;;;;;;;;;37.70;50.60;;;;;;4956657;29;20268;-79
2022/06/20 13:47:28;;;;;;;;;;;37.80;50.90;;;;;;4957036;29;19918;-78
2022/06/20 13:49:54;;;;;;;;;;;38.00;50.80;;;;;;4957057;29;19962;-80
2022/06/20 13:52:26;;;;;;;;;;;37.20;51.40;;;;;;4957210;29;20473;-78
2022/06/20 13:54:56;;;;;;;;;;;36.30;52.30;;;;;;4957067;29;19917;-79
2022/06/20 13:57:40;;;;;;;;;;;36.20;52.60;;;;;;4957004;29;20475;-78
2022/06/20 14:00:18;;;;;;;;;;;36.50;51.10;;;;;;4957035;29;19911;-78
2022/06/20 14:02:46;;;;;;;;;;;36.80;51.00;;;;;;4957340;29;19918;-79
2022/06/20 14:05:15;;;;;;;;;;;37.20;51.20;;;;;;4956911;28;19911;-80
2022/06/20 14:07:43;;;;;;;;;;;37.20;50.50;;;;;;4956774;29;20268;-80
2022/06/20 14:10:19;;;;;;;;;;;36.40;51.30;;;;;;4956865;28;19962;-80
2022/06/20 14:12:49;;;;;;;;;;;35.40;52.90;;;;;;4957029;29;19993;-78
2022/06/20 14:15:26;;;;;;;;;;;36.60;52.70;;;;;;4957273;29;19910;-79
2022/06/20 14:17:57;;;;;;;;;;;37.20;51.30;;;;;;4956646;29;20363;-80
2022/06/20 14:20:27;;;;;;;;;;;37.00;51.30;;;;;;4956607;29;19910;-79
2022/06/20 14:22:54;;;;;;;;;;;37.50;51.00;;;;;;4956643;28;19917;-80
2022/06/20 14:25:40;;;;;;;;;;;38.00;50.30;;;;;;4956706;28;20363;-79
2022/06/20 14:28:25;;;;;;;;;;;38.30;50.60;;;;;;4939299;29;20005;-80
2022/06/20 14:30:57;;;;;;;;;;;38.70;49.70;;;;;;4956702;28;19915;-80
2022/06/20 14:33:26;;;;;;;;;;;37.60;51.10;;;;;;4938857;29;19960;-80
2022/06/20 14:35:52;;;;;;;;;;;38.70;49.90;;;;;;4956355;29;19918;-80
2022/06/20 14:38:21;;;;;;;;;;;39.90;49.00;;;;;;4956600;29;20406;-80
2022/06/20 14:40:50;;;;;;;;;;;38.80;47.40;;;;;;4956351;28;19910;-79
2022/06/20 14:43:23;;;;;;;;;;;38.80;48.60;;;;;;4956331;28;19911;-78
2022/06/20 14:46:07;;;;;;;;;;;38.20;48.90;;;;;;4956453;29;19953;-80
2022/06/20 14:48:37;;;;;;;;;;;38.80;49.50;;;;;;4956118;28;19945;-80
2022/06/20 14:51:26;;;;;;;;;;;37.50;49.00;;;;;;4956274;28;19914;-79